sensor_id;sensor_type;location;lat;lon;timestamp;P1;durP1;ratioP1;P2;durP2;ratioP2
69381;SDS011;56560;50.692;12.844;2022-11-11T00:00:54;13.13;;;4.25;;
69381;SDS011;56560;50.692;12.844;2022-11-11T00:03:27;15.90;;;4.63;;
69381;SDS011;56560;50.692;12.844;2022-11-11T00:05:53;16.35;;;4.80;;
69381;SDS011;56560;50.692;12.844;2022-11-11T00:08:18;13.60;;;5.03;;
69381;SDS011;56560;50.692;12.844;2022-11-11T00:10:44;18.23;;;6.45;;
69381;SDS011;56560;50.692;12.844;2022-11-11T00:13:10;15.43;;;4.82;;
69381;SDS011;56560;50.692;12.844;2022-11-11T00:15:36;14.00;;;3.87;;
69381;SDS011;56560;50.692;12.844;2022-11-11T00:18:03;17.08;;;4.57;;
69381;SDS011;56560;50.692;12.844;2022-11-11T00:20:48;11.18;;;3.92;;
69381;SDS011;56560;50.692;12.844;2022-11-11T00:23:33;13.35;;;3.55;;
69381;SDS011;56560;50.692;12.844;2022-11-11T00:26:17;11.95;;;3.55;;
69381;SDS011;56560;50.692;12.844;2022-11-11T00:28:42;13.48;;;4.10;;
69381;SDS011;56560;50.692;12.844;2022-11-11T00:31:11;12.20;;;4.40;;
69381;SDS011;56560;50.692;12.844;2022-11-11T00:33:38;12.85;;;3.88;;
69381;SDS011;56560;50.692;12.844;2022-11-11T00:36:04;11.18;;;3.45;;
69381;SDS011;56560;50.692;12.844;2022-11-11T00:38:30;9.87;;;2.97;;
69381;SDS011;56560;50.692;12.844;2022-11-11T00:41:12;14.13;;;3.90;;
69381;SDS011;56560;50.692;12.844;2022-11-11T00:43:40;13.77;;;3.90;;
69381;SDS011;56560;50.692;12.844;2022-11-11T00:46:06;14.07;;;4.00;;
69381;SDS011;56560;50.692;12.844;2022-11-11T00:48:50;12.63;;;3.40;;
69381;SDS011;56560;50.692;12.844;2022-11-11T00:51:34;12.63;;;3.15;;
69381;SDS011;56560;50.692;12.844;2022-11-11T00:53:59;11.55;;;3.40;;
69381;SDS011;56560;50.692;12.844;2022-11-11T00:56:25;8.40;;;2.63;;
69381;SDS011;56560;50.692;12.844;2022-11-11T00:58:51;13.27;;;3.38;;
69381;SDS011;56560;50.692;12.844;2022-11-11T01:01:17;12.20;;;3.83;;
69381;SDS011;56560;50.692;12.844;2022-11-11T01:03:43;14.38;;;2.95;;
69381;SDS011;56560;50.692;12.844;2022-11-11T01:06:10;8.27;;;2.67;;
69381;SDS011;56560;50.692;12.844;2022-11-11T01:08:37;8.40;;;2.63;;
69381;SDS011;56560;50.692;12.844;2022-11-11T01:11:02;15.20;;;2.97;;
69381;SDS011;56560;50.692;12.844;2022-11-11T01:13:29;12.27;;;3.53;;
69381;SDS011;56560;50.692;12.844;2022-11-11T01:15:59;8.37;;;2.93;;
69381;SDS011;56560;50.692;12.844;2022-11-11T01:18:27;9.75;;;3.03;;
69381;SDS011;56560;50.692;12.844;2022-11-11T01:21:00;12.07;;;3.33;;
69381;SDS011;56560;50.692;12.844;2022-11-11T01:23:26;9.07;;;3.00;;
69381;SDS011;56560;50.692;12.844;2022-11-11T01:25:53;7.30;;;2.33;;
69381;SDS011;56560;50.692;12.844;2022-11-11T01:28:18;9.18;;;3.33;;
69381;SDS011;56560;50.692;12.844;2022-11-11T01:30:44;15.03;;;4.10;;
69381;SDS011;56560;50.692;12.844;2022-11-11T01:33:10;9.07;;;2.88;;
69381;SDS011;56560;50.692;12.844;2022-11-11T01:35:37;12.00;;;3.45;;
69381;SDS011;56560;50.692;12.844;2022-11-11T01:38:04;11.98;;;3.78;;
69381;SDS011;56560;50.692;12.844;2022-11-11T01:40:29;10.70;;;3.40;;
69381;SDS011;56560;50.692;12.844;2022-11-11T01:43:18;12.77;;;3.43;;
69381;SDS011;56560;50.692;12.844;2022-11-11T01:45:50;10.02;;;3.15;;
69381;SDS011;56560;50.692;12.844;2022-11-11T01:51:15;8.90;;;2.75;;
69381;SDS011;56560;50.692;12.844;2022-11-11T01:54:01;10.85;;;2.80;;
69381;SDS011;56560;50.692;12.844;2022-11-11T01:56:30;7.53;;;2.43;;
69381;SDS011;56560;50.692;12.844;2022-11-11T01:58:59;12.32;;;3.15;;
69381;SDS011;56560;50.692;12.844;2022-11-11T02:01:28;9.32;;;2.75;;
69381;SDS011;56560;50.692;12.844;2022-11-11T02:03:54;12.43;;;3.63;;
69381;SDS011;56560;50.692;12.844;2022-11-11T02:06:40;16.05;;;4.35;;
69381;SDS011;56560;50.692;12.844;2022-11-11T02:09:06;12.30;;;3.65;;
69381;SDS011;56560;50.692;12.844;2022-11-11T02:11:32;9.18;;;2.45;;
69381;SDS011;56560;50.692;12.844;2022-11-11T02:14:18;10.75;;;2.55;;
69381;SDS011;56560;50.692;12.844;2022-11-11T02:17:00;7.60;;;2.40;;
69381;SDS011;56560;50.692;12.844;2022-11-11T02:22:22;9.65;;;2.90;;
69381;SDS011;56560;50.692;12.844;2022-11-11T02:24:55;9.63;;;2.67;;
69381;SDS011;56560;50.692;12.844;2022-11-11T02:27:23;10.70;;;2.72;;
69381;SDS011;56560;50.692;12.844;2022-11-11T02:29:51;9.63;;;2.63;;
69381;SDS011;56560;50.692;12.844;2022-11-11T02:32:19;8.80;;;2.47;;
69381;SDS011;56560;50.692;12.844;2022-11-11T02:34:45;9.85;;;3.03;;
69381;SDS011;56560;50.692;12.844;2022-11-11T02:37:11;8.23;;;2.53;;
69381;SDS011;56560;50.692;12.844;2022-11-11T02:39:41;8.50;;;2.35;;
69381;SDS011;56560;50.692;12.844;2022-11-11T02:42:09;5.45;;;1.92;;
69381;SDS011;56560;50.692;12.844;2022-11-11T02:44:38;8.93;;;2.60;;
69381;SDS011;56560;50.692;12.844;2022-11-11T02:47:04;6.95;;;2.17;;
69381;SDS011;56560;50.692;12.844;2022-11-11T02:49:30;7.73;;;2.37;;
69381;SDS011;56560;50.692;12.844;2022-11-11T02:51:56;7.63;;;2.10;;
69381;SDS011;56560;50.692;12.844;2022-11-11T02:54:22;8.15;;;2.28;;
69381;SDS011;56560;50.692;12.844;2022-11-11T02:56:47;11.10;;;2.20;;
69381;SDS011;56560;50.692;12.844;2022-11-11T02:59:31;6.43;;;1.80;;
69381;SDS011;56560;50.692;12.844;2022-11-11T03:01:58;7.22;;;2.22;;
69381;SDS011;56560;50.692;12.844;2022-11-11T03:04:23;6.47;;;2.10;;
69381;SDS011;56560;50.692;12.844;2022-11-11T03:06:49;7.18;;;1.90;;
69381;SDS011;56560;50.692;12.844;2022-11-11T03:09:14;5.53;;;1.87;;
69381;SDS011;56560;50.692;12.844;2022-11-11T03:11:40;10.50;;;2.67;;
69381;SDS011;56560;50.692;12.844;2022-11-11T03:14:06;6.28;;;1.75;;
69381;SDS011;56560;50.692;12.844;2022-11-11T03:16:32;12.02;;;2.55;;
69381;SDS011;56560;50.692;12.844;2022-11-11T03:19:16;4.90;;;1.77;;
69381;SDS011;56560;50.692;12.844;2022-11-11T03:21:42;9.43;;;2.60;;
69381;SDS011;56560;50.692;12.844;2022-11-11T03:24:07;6.67;;;1.83;;
69381;SDS011;56560;50.692;12.844;2022-11-11T03:26:33;5.72;;;1.70;;
69381;SDS011;56560;50.692;12.844;2022-11-11T03:28:59;8.47;;;2.23;;
69381;SDS011;56560;50.692;12.844;2022-11-11T03:31:24;8.32;;;2.67;;
69381;SDS011;56560;50.692;12.844;2022-11-11T03:33:50;10.43;;;2.50;;
69381;SDS011;56560;50.692;12.844;2022-11-11T03:36:16;10.45;;;2.40;;
69381;SDS011;56560;50.692;12.844;2022-11-11T03:38:41;9.83;;;2.70;;
69381;SDS011;56560;50.692;12.844;2022-11-11T03:41:07;8.50;;;2.67;;
69381;SDS011;56560;50.692;12.844;2022-11-11T03:43:33;10.25;;;2.90;;
69381;SDS011;56560;50.692;12.844;2022-11-11T03:46:02;9.55;;;2.15;;
69381;SDS011;56560;50.692;12.844;2022-11-11T03:48:31;8.23;;;2.20;;
69381;SDS011;56560;50.692;12.844;2022-11-11T03:50:58;9.50;;;1.95;;
69381;SDS011;56560;50.692;12.844;2022-11-11T03:53:23;6.80;;;1.85;;
69381;SDS011;56560;50.692;12.844;2022-11-11T03:55:49;3.63;;;1.40;;
69381;SDS011;56560;50.692;12.844;2022-11-11T03:58:16;7.07;;;2.13;;
69381;SDS011;56560;50.692;12.844;2022-11-11T04:00:43;13.02;;;3.25;;
69381;SDS011;56560;50.692;12.844;2022-11-11T04:03:10;10.05;;;2.40;;
69381;SDS011;56560;50.692;12.844;2022-11-11T04:05:58;5.72;;;1.90;;
69381;SDS011;56560;50.692;12.844;2022-11-11T04:08:43;8.00;;;2.30;;
69381;SDS011;56560;50.692;12.844;2022-11-11T04:11:32;7.18;;;2.10;;
69381;SDS011;56560;50.692;12.844;2022-11-11T04:14:10;9.05;;;2.38;;
69381;SDS011;56560;50.692;12.844;2022-11-11T04:16:55;7.68;;;2.10;;
69381;SDS011;56560;50.692;12.844;2022-11-11T04:19:21;10.48;;;3.67;;
69381;SDS011;56560;50.692;12.844;2022-11-11T04:22:06;9.17;;;2.00;;
69381;SDS011;56560;50.692;12.844;2022-11-11T04:24:32;11.32;;;2.42;;
69381;SDS011;56560;50.692;12.844;2022-11-11T04:27:16;6.55;;;1.90;;
69381;SDS011;56560;50.692;12.844;2022-11-11T04:29:44;10.43;;;2.40;;
69381;SDS011;56560;50.692;12.844;2022-11-11T04:32:15;11.95;;;2.95;;
69381;SDS011;56560;50.692;12.844;2022-11-11T04:35:06;8.43;;;2.33;;
69381;SDS011;56560;50.692;12.844;2022-11-11T04:37:35;10.38;;;2.33;;
69381;SDS011;56560;50.692;12.844;2022-11-11T04:40:09;9.68;;;2.20;;
69381;SDS011;56560;50.692;12.844;2022-11-11T04:42:53;10.02;;;2.85;;
69381;SDS011;56560;50.692;12.844;2022-11-11T04:45:19;8.17;;;2.10;;
69381;SDS011;56560;50.692;12.844;2022-11-11T04:50:24;7.70;;;2.30;;
69381;SDS011;56560;50.692;12.844;2022-11-11T04:52:54;9.63;;;2.90;;
69381;SDS011;56560;50.692;12.844;2022-11-11T04:55:20;11.07;;;2.47;;
69381;SDS011;56560;50.692;12.844;2022-11-11T04:58:05;7.53;;;2.30;;
69381;SDS011;56560;50.692;12.844;2022-11-11T05:00:31;7.55;;;2.00;;
69381;SDS011;56560;50.692;12.844;2022-11-11T05:02:57;7.63;;;1.80;;
69381;SDS011;56560;50.692;12.844;2022-11-11T05:05:46;4.53;;;1.52;;
69381;SDS011;56560;50.692;12.844;2022-11-11T05:08:36;8.05;;;2.30;;
69381;SDS011;56560;50.692;12.844;2022-11-11T05:11:21;11.25;;;2.60;;
69381;SDS011;56560;50.692;12.844;2022-11-11T05:13:47;10.65;;;2.80;;
69381;SDS011;56560;50.692;12.844;2022-11-11T05:16:32;9.60;;;1.97;;
69381;SDS011;56560;50.692;12.844;2022-11-11T05:19:20;7.97;;;2.50;;
69381;SDS011;56560;50.692;12.844;2022-11-11T05:22:10;11.07;;;2.60;;
69381;SDS011;56560;50.692;12.844;2022-11-11T05:24:37;11.35;;;2.05;;
69381;SDS011;56560;50.692;12.844;2022-11-11T05:27:21;3.92;;;1.55;;
69381;SDS011;56560;50.692;12.844;2022-11-11T05:29:47;6.90;;;2.37;;
69381;SDS011;56560;50.692;12.844;2022-11-11T05:32:16;9.13;;;2.38;;
69381;SDS011;56560;50.692;12.844;2022-11-11T05:34:43;5.37;;;1.90;;
69381;SDS011;56560;50.692;12.844;2022-11-11T05:37:09;4.57;;;1.55;;
69381;SDS011;56560;50.692;12.844;2022-11-11T05:39:35;4.88;;;1.67;;
69381;SDS011;56560;50.692;12.844;2022-11-11T05:42:01;9.03;;;1.93;;
69381;SDS011;56560;50.692;12.844;2022-11-11T05:44:26;8.30;;;2.17;;
69381;SDS011;56560;50.692;12.844;2022-11-11T05:46:52;8.67;;;2.07;;
69381;SDS011;56560;50.692;12.844;2022-11-11T05:49:17;6.40;;;2.25;;
69381;SDS011;56560;50.692;12.844;2022-11-11T05:51:43;8.98;;;2.38;;
69381;SDS011;56560;50.692;12.844;2022-11-11T05:54:10;6.88;;;1.92;;
69381;SDS011;56560;50.692;12.844;2022-11-11T05:56:36;8.95;;;2.22;;
69381;SDS011;56560;50.692;12.844;2022-11-11T05:59:01;8.00;;;1.70;;
69381;SDS011;56560;50.692;12.844;2022-11-11T06:01:27;4.88;;;1.70;;
69381;SDS011;56560;50.692;12.844;2022-11-11T06:03:53;5.20;;;1.93;;
69381;SDS011;56560;50.692;12.844;2022-11-11T06:06:19;7.40;;;1.60;;
69381;SDS011;56560;50.692;12.844;2022-11-11T06:08:44;6.43;;;1.83;;
69381;SDS011;56560;50.692;12.844;2022-11-11T06:11:10;8.05;;;2.10;;
69381;SDS011;56560;50.692;12.844;2022-11-11T06:13:36;6.93;;;2.07;;
69381;SDS011;56560;50.692;12.844;2022-11-11T06:16:02;8.27;;;2.42;;
69381;SDS011;56560;50.692;12.844;2022-11-11T06:18:28;10.10;;;2.70;;
69381;SDS011;56560;50.692;12.844;2022-11-11T06:20:55;4.75;;;1.90;;
69381;SDS011;56560;50.692;12.844;2022-11-11T06:23:21;6.50;;;2.20;;
69381;SDS011;56560;50.692;12.844;2022-11-11T06:25:47;5.43;;;1.80;;
69381;SDS011;56560;50.692;12.844;2022-11-11T06:28:32;8.13;;;2.50;;
69381;SDS011;56560;50.692;12.844;2022-11-11T06:30:58;6.25;;;2.03;;
69381;SDS011;56560;50.692;12.844;2022-11-11T06:33:24;19.02;;;7.57;;
69381;SDS011;56560;50.692;12.844;2022-11-11T06:35:49;12.63;;;4.25;;
69381;SDS011;56560;50.692;12.844;2022-11-11T06:38:16;14.90;;;4.07;;
69381;SDS011;56560;50.692;12.844;2022-11-11T06:40:42;11.40;;;3.63;;
69381;SDS011;56560;50.692;12.844;2022-11-11T06:43:09;8.70;;;2.63;;
69381;SDS011;56560;50.692;12.844;2022-11-11T06:45:35;9.30;;;2.95;;
69381;SDS011;56560;50.692;12.844;2022-11-11T06:48:01;11.10;;;3.60;;
69381;SDS011;56560;50.692;12.844;2022-11-11T06:50:28;10.68;;;2.88;;
69381;SDS011;56560;50.692;12.844;2022-11-11T06:52:54;12.73;;;2.87;;
69381;SDS011;56560;50.692;12.844;2022-11-11T06:55:20;9.93;;;2.63;;
69381;SDS011;56560;50.692;12.844;2022-11-11T06:57:46;7.88;;;2.10;;
69381;SDS011;56560;50.692;12.844;2022-11-11T07:00:12;10.37;;;2.17;;
69381;SDS011;56560;50.692;12.844;2022-11-11T07:02:38;8.68;;;2.33;;
69381;SDS011;56560;50.692;12.844;2022-11-11T07:05:04;12.13;;;4.30;;
69381;SDS011;56560;50.692;12.844;2022-11-11T07:07:30;14.07;;;5.10;;
69381;SDS011;56560;50.692;12.844;2022-11-11T07:09:56;18.37;;;6.97;;
69381;SDS011;56560;50.692;12.844;2022-11-11T07:12:22;10.65;;;3.30;;
69381;SDS011;56560;50.692;12.844;2022-11-11T07:14:48;14.13;;;4.05;;
69381;SDS011;56560;50.692;12.844;2022-11-11T07:17:14;16.40;;;5.37;;
69381;SDS011;56560;50.692;12.844;2022-11-11T07:19:40;14.13;;;4.45;;
69381;SDS011;56560;50.692;12.844;2022-11-11T07:22:06;10.77;;;3.50;;
69381;SDS011;56560;50.692;12.844;2022-11-11T07:24:31;13.20;;;4.38;;
69381;SDS011;56560;50.692;12.844;2022-11-11T07:26:57;10.13;;;3.70;;
69381;SDS011;56560;50.692;12.844;2022-11-11T07:29:23;11.55;;;3.60;;
69381;SDS011;56560;50.692;12.844;2022-11-11T07:31:49;14.33;;;3.53;;
69381;SDS011;56560;50.692;12.844;2022-11-11T07:34:15;10.68;;;3.30;;
69381;SDS011;56560;50.692;12.844;2022-11-11T07:36:41;15.43;;;5.25;;
69381;SDS011;56560;50.692;12.844;2022-11-11T07:39:06;8.63;;;2.90;;
69381;SDS011;56560;50.692;12.844;2022-11-11T07:41:32;13.98;;;3.90;;
69381;SDS011;56560;50.692;12.844;2022-11-11T07:43:58;11.13;;;2.90;;
69381;SDS011;56560;50.692;12.844;2022-11-11T07:46:23;12.37;;;3.40;;
69381;SDS011;56560;50.692;12.844;2022-11-11T07:48:50;11.60;;;4.03;;
69381;SDS011;56560;50.692;12.844;2022-11-11T07:51:15;10.13;;;3.78;;
69381;SDS011;56560;50.692;12.844;2022-11-11T07:53:41;10.37;;;3.33;;
69381;SDS011;56560;50.692;12.844;2022-11-11T07:56:06;8.43;;;2.80;;
69381;SDS011;56560;50.692;12.844;2022-11-11T07:58:32;12.37;;;3.50;;
69381;SDS011;56560;50.692;12.844;2022-11-11T08:00:58;10.40;;;2.93;;
69381;SDS011;56560;50.692;12.844;2022-11-11T08:03:26;13.25;;;4.47;;
69381;SDS011;56560;50.692;12.844;2022-11-11T08:05:53;12.30;;;3.67;;
69381;SDS011;56560;50.692;12.844;2022-11-11T08:08:20;10.60;;;3.10;;
69381;SDS011;56560;50.692;12.844;2022-11-11T08:10:49;7.28;;;2.63;;
69381;SDS011;56560;50.692;12.844;2022-11-11T08:13:17;10.73;;;3.58;;
69381;SDS011;56560;50.692;12.844;2022-11-11T08:16:01;14.88;;;3.90;;
69381;SDS011;56560;50.692;12.844;2022-11-11T08:18:30;11.80;;;3.75;;
69381;SDS011;56560;50.692;12.844;2022-11-11T08:20:56;11.03;;;3.40;;
69381;SDS011;56560;50.692;12.844;2022-11-11T08:23:22;12.25;;;4.30;;
69381;SDS011;56560;50.692;12.844;2022-11-11T08:25:56;10.40;;;3.13;;
69381;SDS011;56560;50.692;12.844;2022-11-11T08:28:26;10.35;;;3.55;;
69381;SDS011;56560;50.692;12.844;2022-11-11T08:30:53;10.80;;;3.13;;
69381;SDS011;56560;50.692;12.844;2022-11-11T08:33:19;13.18;;;3.60;;
69381;SDS011;56560;50.692;12.844;2022-11-11T08:35:45;8.15;;;2.55;;
69381;SDS011;56560;50.692;12.844;2022-11-11T08:38:10;9.27;;;2.80;;
69381;SDS011;56560;50.692;12.844;2022-11-11T08:40:37;11.63;;;3.38;;
69381;SDS011;56560;50.692;12.844;2022-11-11T08:43:03;14.70;;;5.28;;
69381;SDS011;56560;50.692;12.844;2022-11-11T08:45:29;11.50;;;3.00;;
69381;SDS011;56560;50.692;12.844;2022-11-11T08:47:54;11.17;;;2.87;;
69381;SDS011;56560;50.692;12.844;2022-11-11T08:50:20;11.43;;;2.92;;
69381;SDS011;56560;50.692;12.844;2022-11-11T08:52:46;32.87;;;15.83;;
69381;SDS011;56560;50.692;12.844;2022-11-11T08:55:13;24.77;;;10.57;;
69381;SDS011;56560;50.692;12.844;2022-11-11T08:57:39;8.90;;;2.90;;
69381;SDS011;56560;50.692;12.844;2022-11-11T09:00:05;11.63;;;3.80;;
69381;SDS011;56560;50.692;12.844;2022-11-11T09:02:32;10.48;;;2.67;;
69381;SDS011;56560;50.692;12.844;2022-11-11T09:04:57;6.78;;;2.40;;
69381;SDS011;56560;50.692;12.844;2022-11-11T09:07:23;15.13;;;2.70;;
69381;SDS011;56560;50.692;12.844;2022-11-11T09:09:50;13.38;;;3.80;;
69381;SDS011;56560;50.692;12.844;2022-11-11T09:12:15;20.10;;;7.00;;
69381;SDS011;56560;50.692;12.844;2022-11-11T09:14:41;12.68;;;4.47;;
69381;SDS011;56560;50.692;12.844;2022-11-11T09:17:06;10.87;;;2.97;;
69381;SDS011;56560;50.692;12.844;2022-11-11T09:19:32;13.55;;;4.10;;
69381;SDS011;56560;50.692;12.844;2022-11-11T09:21:58;9.90;;;3.60;;
69381;SDS011;56560;50.692;12.844;2022-11-11T09:24:24;10.05;;;2.90;;
69381;SDS011;56560;50.692;12.844;2022-11-11T09:26:50;6.70;;;2.03;;
69381;SDS011;56560;50.692;12.844;2022-11-11T09:29:16;8.50;;;2.50;;
69381;SDS011;56560;50.692;12.844;2022-11-11T09:31:42;5.93;;;1.80;;
69381;SDS011;56560;50.692;12.844;2022-11-11T09:34:08;4.07;;;1.52;;
69381;SDS011;56560;50.692;12.844;2022-11-11T09:36:34;5.83;;;2.00;;
69381;SDS011;56560;50.692;12.844;2022-11-11T09:38:59;4.00;;;1.40;;
69381;SDS011;56560;50.692;12.844;2022-11-11T09:44:21;8.77;;;2.40;;
69381;SDS011;56560;50.692;12.844;2022-11-11T09:49:32;8.53;;;1.70;;
69381;SDS011;56560;50.692;12.844;2022-11-11T09:52:21;8.98;;;2.28;;
69381;SDS011;56560;50.692;12.844;2022-11-11T09:54:58;5.07;;;1.50;;
69381;SDS011;56560;50.692;12.844;2022-11-11T09:57:54;3.60;;;1.50;;
69381;SDS011;56560;50.692;12.844;2022-11-11T10:00:34;9.80;;;3.35;;
69381;SDS011;56560;50.692;12.844;2022-11-11T10:03:11;6.10;;;1.40;;
69381;SDS011;56560;50.692;12.844;2022-11-11T10:08:41;11.55;;;4.80;;
69381;SDS011;56560;50.692;12.844;2022-11-11T10:11:21;12.63;;;3.67;;
69381;SDS011;56560;50.692;12.844;2022-11-11T10:13:54;6.57;;;2.10;;
69381;SDS011;56560;50.692;12.844;2022-11-11T10:21:36;9.98;;;4.32;;
69381;SDS011;56560;50.692;12.844;2022-11-11T10:24:15;5.05;;;2.03;;
69381;SDS011;56560;50.692;12.844;2022-11-11T10:26:55;13.45;;;3.13;;
69381;SDS011;56560;50.692;12.844;2022-11-11T10:29:23;11.50;;;3.67;;
69381;SDS011;56560;50.692;12.844;2022-11-11T10:31:55;8.80;;;3.15;;
69381;SDS011;56560;50.692;12.844;2022-11-11T10:34:35;7.82;;;2.00;;
69381;SDS011;56560;50.692;12.844;2022-11-11T10:37:02;10.85;;;2.90;;
69381;SDS011;56560;50.692;12.844;2022-11-11T10:42:17;7.78;;;2.20;;
69381;SDS011;56560;50.692;12.844;2022-11-11T10:44:43;9.88;;;3.20;;
69381;SDS011;56560;50.692;12.844;2022-11-11T10:50:11;7.68;;;2.47;;
69381;SDS011;56560;50.692;12.844;2022-11-11T10:52:47;4.05;;;1.67;;
69381;SDS011;56560;50.692;12.844;2022-11-11T10:55:31;4.43;;;1.27;;
69381;SDS011;56560;50.692;12.844;2022-11-11T10:58:10;6.32;;;1.50;;
69381;SDS011;56560;50.692;12.844;2022-11-11T11:00:44;5.33;;;1.30;;
69381;SDS011;56560;50.692;12.844;2022-11-11T11:03:15;5.43;;;2.10;;
69381;SDS011;56560;50.692;12.844;2022-11-11T11:05:50;6.18;;;1.75;;
69381;SDS011;56560;50.692;12.844;2022-11-11T11:08:38;11.20;;;1.88;;
69381;SDS011;56560;50.692;12.844;2022-11-11T11:14:07;6.10;;;1.50;;
69381;SDS011;56560;50.692;12.844;2022-11-11T11:16:46;3.92;;;1.30;;
69381;SDS011;56560;50.692;12.844;2022-11-11T11:19:16;5.57;;;1.55;;
69381;SDS011;56560;50.692;12.844;2022-11-11T11:24:28;4.65;;;1.40;;
69381;SDS011;56560;50.692;12.844;2022-11-11T11:27:01;4.23;;;1.30;;
69381;SDS011;56560;50.692;12.844;2022-11-11T11:37:19;3.17;;;1.33;;
69381;SDS011;56560;50.692;12.844;2022-11-11T11:39:46;5.97;;;1.93;;
69381;SDS011;56560;50.692;12.844;2022-11-11T11:56:35;4.88;;;1.40;;
69381;SDS011;56560;50.692;12.844;2022-11-11T11:59:15;8.27;;;2.22;;
69381;SDS011;56560;50.692;12.844;2022-11-11T12:10:23;7.72;;;2.70;;
69381;SDS011;56560;50.692;12.844;2022-11-11T12:18:50;10.90;;;3.53;;
69381;SDS011;56560;50.692;12.844;2022-11-11T12:21:40;20.30;;;7.43;;
69381;SDS011;56560;50.692;12.844;2022-11-11T12:24:30;28.35;;;11.55;;
69381;SDS011;56560;50.692;12.844;2022-11-11T13:15:46;8.10;;;3.22;;
69381;SDS011;56560;50.692;12.844;2022-11-11T13:18:27;15.85;;;6.72;;
69381;SDS011;56560;50.692;12.844;2022-11-11T13:21:06;20.20;;;7.88;;
69381;SDS011;56560;50.692;12.844;2022-11-11T13:23:37;11.25;;;4.47;;
69381;SDS011;56560;50.692;12.844;2022-11-11T13:26:03;10.00;;;3.27;;
69381;SDS011;56560;50.692;12.844;2022-11-11T13:28:40;10.57;;;4.03;;
69381;SDS011;56560;50.692;12.844;2022-11-11T13:31:20;9.75;;;3.17;;
69381;SDS011;56560;50.692;12.844;2022-11-11T13:33:49;10.15;;;4.00;;
69381;SDS011;56560;50.692;12.844;2022-11-11T13:36:19;6.60;;;2.22;;
69381;SDS011;56560;50.692;12.844;2022-11-11T13:41:30;14.27;;;4.38;;
69381;SDS011;56560;50.692;12.844;2022-11-11T13:43:58;13.13;;;4.90;;
69381;SDS011;56560;50.692;12.844;2022-11-11T13:46:37;13.77;;;4.55;;
69381;SDS011;56560;50.692;12.844;2022-11-11T13:49:07;12.07;;;3.88;;
69381;SDS011;56560;50.692;12.844;2022-11-11T13:51:56;13.18;;;3.95;;
69381;SDS011;56560;50.692;12.844;2022-11-11T13:54:31;12.45;;;3.85;;
69381;SDS011;56560;50.692;12.844;2022-11-11T13:59:42;15.77;;;4.75;;
69381;SDS011;56560;50.692;12.844;2022-11-11T14:10:41;11.63;;;4.78;;
69381;SDS011;56560;50.692;12.844;2022-11-11T14:15:50;16.30;;;4.90;;
69381;SDS011;56560;50.692;12.844;2022-11-11T14:20:47;20.75;;;8.93;;
69381;SDS011;56560;50.692;12.844;2022-11-11T14:25:39;11.55;;;3.95;;
69381;SDS011;56560;50.692;12.844;2022-11-11T14:28:18;13.67;;;5.07;;
69381;SDS011;56560;50.692;12.844;2022-11-11T14:30:48;18.23;;;7.05;;
69381;SDS011;56560;50.692;12.844;2022-11-11T14:38:46;9.35;;;2.83;;
69381;SDS011;56560;50.692;12.844;2022-11-11T14:44:50;11.88;;;4.25;;
69381;SDS011;56560;50.692;12.844;2022-11-11T14:52:25;10.02;;;3.10;;
69381;SDS011;56560;50.692;12.844;2022-11-11T14:58:09;11.20;;;4.28;;
69381;SDS011;56560;50.692;12.844;2022-11-11T15:03:25;11.27;;;4.80;;
69381;SDS011;56560;50.692;12.844;2022-11-11T15:06:13;15.85;;;5.22;;
69381;SDS011;56560;50.692;12.844;2022-11-11T15:11:49;16.40;;;5.82;;
69381;SDS011;56560;50.692;12.844;2022-11-11T15:14:20;11.18;;;4.03;;
69381;SDS011;56560;50.692;12.844;2022-11-11T15:25:44;13.07;;;5.32;;
69381;SDS011;56560;50.692;12.844;2022-11-11T15:39:20;11.32;;;4.50;;
69381;SDS011;56560;50.692;12.844;2022-11-11T15:41:50;10.77;;;4.00;;
69381;SDS011;56560;50.692;12.844;2022-11-11T15:44:18;14.68;;;5.18;;
69381;SDS011;56560;50.692;12.844;2022-11-11T15:46:47;17.50;;;7.47;;
69381;SDS011;56560;50.692;12.844;2022-11-11T15:52:28;24.40;;;9.82;;
69381;SDS011;56560;50.692;12.844;2022-11-11T15:54:56;49.53;;;20.70;;
69381;SDS011;56560;50.692;12.844;2022-11-11T15:57:24;63.70;;;27.98;;
69381;SDS011;56560;50.692;12.844;2022-11-11T15:59:49;78.85;;;35.83;;
69381;SDS011;56560;50.692;12.844;2022-11-11T16:02:19;46.40;;;20.90;;
69381;SDS011;56560;50.692;12.844;2022-11-11T16:05:06;37.53;;;17.02;;
69381;SDS011;56560;50.692;12.844;2022-11-11T16:07:42;40.90;;;19.00;;
69381;SDS011;56560;50.692;12.844;2022-11-11T16:10:31;51.97;;;25.95;;
69381;SDS011;56560;50.692;12.844;2022-11-11T16:16:11;50.08;;;23.95;;
69381;SDS011;56560;50.692;12.844;2022-11-11T16:18:48;51.55;;;24.77;;
69381;SDS011;56560;50.692;12.844;2022-11-11T16:21:22;52.35;;;25.42;;
69381;SDS011;56560;50.692;12.844;2022-11-11T16:23:55;41.05;;;19.10;;
69381;SDS011;56560;50.692;12.844;2022-11-11T16:26:22;33.75;;;14.48;;
69381;SDS011;56560;50.692;12.844;2022-11-11T16:28:53;33.20;;;16.67;;
69381;SDS011;56560;50.692;12.844;2022-11-11T16:31:36;30.30;;;14.82;;
69381;SDS011;56560;50.692;12.844;2022-11-11T16:34:45;43.00;;;19.52;;
69381;SDS011;56560;50.692;12.844;2022-11-11T16:37:02;47.92;;;22.73;;
69381;SDS011;56560;50.692;12.844;2022-11-11T16:39:30;35.15;;;18.10;;
69381;SDS011;56560;50.692;12.844;2022-11-11T16:41:57;33.83;;;14.40;;
69381;SDS011;56560;50.692;12.844;2022-11-11T16:44:34;24.55;;;12.07;;
69381;SDS011;56560;50.692;12.844;2022-11-11T16:47:04;32.20;;;16.50;;
69381;SDS011;56560;50.692;12.844;2022-11-11T16:49:37;29.88;;;13.95;;
69381;SDS011;56560;50.692;12.844;2022-11-11T16:52:06;25.85;;;12.82;;
69381;SDS011;56560;50.692;12.844;2022-11-11T16:54:36;23.25;;;11.07;;
69381;SDS011;56560;50.692;12.844;2022-11-11T16:57:11;29.35;;;12.23;;
69381;SDS011;56560;50.692;12.844;2022-11-11T16:59:46;29.58;;;14.38;;
69381;SDS011;56560;50.692;12.844;2022-11-11T17:02:16;41.17;;;18.52;;
69381;SDS011;56560;50.692;12.844;2022-11-11T17:05:16;46.67;;;21.35;;
69381;SDS011;56560;50.692;12.844;2022-11-11T17:07:36;39.22;;;18.27;;
69381;SDS011;56560;50.692;12.844;2022-11-11T17:12:33;51.80;;;25.08;;
69381;SDS011;56560;50.692;12.844;2022-11-11T17:15:05;51.85;;;25.05;;
69381;SDS011;56560;50.692;12.844;2022-11-11T17:17:35;49.80;;;23.67;;
69381;SDS011;56560;50.692;12.844;2022-11-11T17:20:18;44.42;;;22.15;;
69381;SDS011;56560;50.692;12.844;2022-11-11T17:22:49;39.13;;;18.15;;
69381;SDS011;56560;50.692;12.844;2022-11-11T17:25:19;35.90;;;17.73;;
69381;SDS011;56560;50.692;12.844;2022-11-11T17:27:45;37.60;;;17.35;;
69381;SDS011;56560;50.692;12.844;2022-11-11T17:30:11;43.23;;;19.67;;
69381;SDS011;56560;50.692;12.844;2022-11-11T17:32:37;53.22;;;28.70;;
69381;SDS011;56560;50.692;12.844;2022-11-11T17:35:03;54.05;;;25.10;;
69381;SDS011;56560;50.692;12.844;2022-11-11T17:37:32;55.73;;;25.20;;
69381;SDS011;56560;50.692;12.844;2022-11-11T17:39:59;39.88;;;18.95;;
69381;SDS011;56560;50.692;12.844;2022-11-11T17:42:26;44.28;;;20.20;;
69381;SDS011;56560;50.692;12.844;2022-11-11T17:44:53;44.35;;;21.50;;
69381;SDS011;56560;50.692;12.844;2022-11-11T17:47:18;37.93;;;17.50;;
69381;SDS011;56560;50.692;12.844;2022-11-11T17:49:44;46.33;;;19.43;;
69381;SDS011;56560;50.692;12.844;2022-11-11T17:52:10;43.95;;;19.63;;
69381;SDS011;56560;50.692;12.844;2022-11-11T17:54:35;44.43;;;20.67;;
69381;SDS011;56560;50.692;12.844;2022-11-11T17:57:01;45.58;;;21.40;;